createdAt,value
2022-10-10T00:00:08.466Z,101565.13
2022-10-10T00:02:34.941Z,101560.72
2022-10-10T00:05:01.339Z,101557.28
2022-10-10T00:07:27.641Z,101558.19
2022-10-10T00:09:53.946Z,101543.38
2022-10-10T00:12:20.272Z,101539.72
2022-10-10T00:14:46.566Z,101536.25
2022-10-10T00:17:12.895Z,101531.84
2022-10-10T00:19:39.249Z,101526.31
2022-10-10T00:22:05.596Z,101530.84
2022-10-10T00:24:31.893Z,101531.03
2022-10-10T00:26:58.280Z,101522.06
2022-10-10T00:29:24.600Z,101523.91
2022-10-10T00:31:50.911Z,101527.69
2022-10-10T00:34:17.277Z,101526.00
2022-10-10T00:36:43.583Z,101520.88
2022-10-10T00:39:09.874Z,101522.88
2022-10-10T00:41:36.319Z,101523.41
2022-10-10T00:44:09.124Z,101529.09
2022-10-10T00:46:35.997Z,101522.53
2022-10-10T00:49:04.775Z,101526.56
2022-10-10T00:51:31.344Z,101517.91
2022-10-10T00:54:02.710Z,101513.13
2022-10-10T00:56:44.017Z,101511.66
2022-10-10T00:59:12.393Z,101505.72
2022-10-10T01:01:40.972Z,101511.97
2022-10-10T01:04:27.265Z,101506.63
2022-10-10T01:06:53.650Z,101502.00
2022-10-10T01:09:20.012Z,101510.19
2022-10-10T01:11:54.851Z,101502.47
2022-10-10T01:14:41.896Z,101492.84
2022-10-10T01:17:14.558Z,101494.00
2022-10-10T01:20:14.497Z,101488.75
2022-10-10T01:23:07.943Z,101483.03
2022-10-10T01:25:59.017Z,101473.03
2022-10-10T01:28:43.682Z,101463.50
2022-10-10T01:31:13.696Z,101465.19
2022-10-10T01:33:54.810Z,101462.31
2022-10-10T01:36:32.931Z,101455.22
2022-10-10T01:39:09.158Z,101452.41
2022-10-10T01:41:50.382Z,101448.63
2022-10-10T01:44:20.504Z,101441.69
2022-10-10T01:46:47.042Z,101439.63
2022-10-10T01:49:13.400Z,101432.84
2022-10-10T01:51:56.340Z,101437.31
2022-10-10T01:54:41.318Z,101437.22
2022-10-10T01:57:23.499Z,101430.31
2022-10-10T02:00:12.688Z,101431.28
2022-10-10T02:02:47.705Z,101434.34
2022-10-10T02:05:17.277Z,101430.94
2022-10-10T02:07:50.765Z,101424.19
2022-10-10T02:10:23.353Z,101425.97
2022-10-10T02:12:50.748Z,101420.81
2022-10-10T02:15:22.359Z,101424.06
2022-10-10T02:17:50.857Z,101423.09
2022-10-10T02:20:21.845Z,101422.44
2022-10-10T02:22:50.616Z,101418.41
2022-10-10T02:25:24.166Z,101420.69
2022-10-10T02:28:13.813Z,101422.75
2022-10-10T02:30:46.630Z,101422.28
2022-10-10T02:33:18.530Z,101412.19
2022-10-10T02:35:49.270Z,101416.50
2022-10-10T02:38:17.291Z,101405.75
2022-10-10T02:40:47.296Z,101401.81
2022-10-10T02:43:15.232Z,101389.13
2022-10-10T02:45:41.650Z,101390.91
2022-10-10T02:48:08.800Z,101395.72
2022-10-10T02:50:35.403Z,101385.13
2022-10-10T02:53:01.719Z,101381.59
2022-10-10T02:55:28.139Z,101385.00
2022-10-10T02:57:54.486Z,101372.00
2022-10-10T03:00:20.988Z,101375.19
2022-10-10T03:02:47.491Z,101372.47
2022-10-10T03:05:14.500Z,101356.88
2022-10-10T03:07:40.833Z,101365.25
2022-10-10T03:10:07.581Z,101360.91
2022-10-10T03:12:35.190Z,101356.25
2022-10-10T03:15:01.867Z,101367.19
2022-10-10T03:17:28.225Z,101363.31
2022-10-10T03:19:54.539Z,101359.00
2022-10-10T03:22:20.873Z,101354.81
2022-10-10T03:24:47.253Z,101358.81
2022-10-10T03:27:13.595Z,101354.97
2022-10-10T03:29:39.903Z,101359.47
2022-10-10T03:32:10.269Z,101350.44
2022-10-10T03:34:37.439Z,101354.63
2022-10-10T03:37:03.760Z,101345.16
2022-10-10T03:39:30.182Z,101345.63
2022-10-10T03:41:56.527Z,101347.38
2022-10-10T03:44:22.900Z,101337.59
2022-10-10T03:46:49.307Z,101329.59
2022-10-10T03:49:15.666Z,101327.31
2022-10-10T03:51:41.985Z,101323.16
2022-10-10T03:54:08.393Z,101314.00
2022-10-10T03:56:34.711Z,101315.63
2022-10-10T03:59:03.646Z,101316.09
2022-10-10T04:01:30.743Z,101312.34
2022-10-10T04:03:57.157Z,101308.50
2022-10-10T04:06:23.570Z,101305.59
2022-10-10T04:08:50.179Z,101310.41
2022-10-10T04:11:16.608Z,101305.13
2022-10-10T04:13:42.944Z,101307.53
2022-10-10T04:16:09.312Z,101307.34
2022-10-10T04:18:35.664Z,101303.03
2022-10-10T04:21:04.136Z,101302.50
2022-10-10T04:23:30.636Z,101292.91
2022-10-10T04:25:56.987Z,101297.53
2022-10-10T04:28:23.338Z,101288.19
2022-10-10T04:30:49.911Z,101282.78
2022-10-10T04:33:16.234Z,101283.53
2022-10-10T04:35:42.580Z,101268.66
2022-10-10T04:38:09.147Z,101275.47
2022-10-10T04:40:37.550Z,101270.16
2022-10-10T04:43:04.075Z,101268.44
2022-10-10T04:45:35.216Z,101263.91
2022-10-10T04:48:03.767Z,101268.72
2022-10-10T04:50:30.297Z,101262.25
2022-10-10T04:52:56.599Z,101260.75
2022-10-10T04:55:23.159Z,101261.81
2022-10-10T04:57:49.564Z,101259.09
2022-10-10T05:00:15.931Z,101256.22
2022-10-10T05:02:42.295Z,101258.31
2022-10-10T05:05:09.132Z,101242.47
2022-10-10T05:07:35.563Z,101251.56
2022-10-10T05:10:02.377Z,101253.06
2022-10-10T05:12:28.803Z,101244.09
2022-10-10T05:14:55.140Z,101245.22
2022-10-10T05:17:21.450Z,101236.22
2022-10-10T05:19:48.119Z,101231.44
2022-10-10T05:22:14.469Z,101234.63
2022-10-10T05:24:40.984Z,101222.25
2022-10-10T05:27:07.317Z,101223.53
2022-10-10T05:29:33.665Z,101220.81
2022-10-10T05:32:00.036Z,101230.28
2022-10-10T05:34:26.511Z,101229.81
2022-10-10T05:36:52.920Z,101224.66
2022-10-10T05:39:19.250Z,101221.94
2022-10-10T05:41:45.548Z,101224.50
2022-10-10T05:44:11.884Z,101218.41
2022-10-10T05:46:38.256Z,101217.63
2022-10-10T05:49:04.602Z,101216.03
2022-10-10T05:51:30.977Z,101211.22
2022-10-10T05:53:57.488Z,101210.41
2022-10-10T05:56:23.872Z,101212.63
2022-10-10T05:58:51.539Z,101212.63
2022-10-10T06:01:18.368Z,101215.53
2022-10-10T06:03:44.688Z,101208.31
2022-10-10T06:06:11.023Z,101209.41
2022-10-10T06:08:37.341Z,101202.84
2022-10-10T06:11:07.970Z,101198.03
2022-10-10T06:13:34.691Z,101202.38
2022-10-10T06:16:01.040Z,101197.38
2022-10-10T06:18:27.461Z,101192.97
2022-10-10T06:20:53.767Z,101185.28
2022-10-10T06:23:20.592Z,101190.28
2022-10-10T06:25:47.175Z,101186.09
2022-10-10T06:28:13.535Z,101194.69
2022-10-10T06:30:44.218Z,101192.91
2022-10-10T06:33:12.339Z,101188.72
2022-10-10T06:35:40.771Z,101186.81
2022-10-10T06:38:07.265Z,101187.28
2022-10-10T06:40:33.675Z,101186.91
2022-10-10T06:42:59.997Z,101185.34
2022-10-10T06:45:26.562Z,101194.22
2022-10-10T06:47:52.910Z,101179.09
2022-10-10T06:50:19.232Z,101177.84
2022-10-10T06:52:45.534Z,101175.16
2022-10-10T06:55:11.883Z,101176.09
2022-10-10T06:57:38.198Z,101167.75
2022-10-10T07:00:05.680Z,101166.47
2022-10-10T07:02:32.116Z,101155.59
2022-10-10T07:04:58.486Z,101160.56
2022-10-10T07:07:24.840Z,101151.91
2022-10-10T07:09:51.173Z,101145.69
2022-10-10T07:12:17.509Z,101146.81
2022-10-10T07:14:43.852Z,101153.38
2022-10-10T07:17:10.200Z,101143.47
2022-10-10T07:19:37.762Z,101141.69
2022-10-10T07:22:04.107Z,101135.78
2022-10-10T07:24:30.498Z,101141.69
2022-10-10T07:27:04.787Z,101138.19
2022-10-10T07:29:33.109Z,101137.34
2022-10-10T07:31:59.646Z,101142.97
2022-10-10T07:34:26.028Z,101136.03
2022-10-10T07:36:52.422Z,101138.44
2022-10-10T07:39:20.599Z,101147.59
2022-10-10T07:41:46.993Z,101135.53
2022-10-10T07:44:13.343Z,101134.59
2022-10-10T07:46:39.656Z,101134.22
2022-10-10T07:49:05.986Z,101134.84
2022-10-10T07:51:32.329Z,101126.50
2022-10-10T07:53:58.828Z,101127.94
2022-10-10T07:56:25.239Z,101138.31
2022-10-10T07:58:51.655Z,101124.78
2022-10-10T08:01:18.277Z,101133.56
2022-10-10T08:03:45.310Z,101127.59
2022-10-10T08:06:15.431Z,101134.16
2022-10-10T08:08:50.861Z,101126.56
2022-10-10T08:11:18.993Z,101124.88
2022-10-10T08:13:45.407Z,101125.66
2022-10-10T08:16:11.900Z,101120.66
2022-10-10T08:18:38.262Z,101116.88
2022-10-10T08:21:07.664Z,101110.94
2022-10-10T08:23:34.337Z,101119.00
2022-10-10T08:26:02.434Z,101120.09
2022-10-10T08:28:29.481Z,101115.00
2022-10-10T08:30:55.953Z,101112.19
2022-10-10T08:33:25.507Z,101113.00
2022-10-10T08:35:51.844Z,101097.84
2022-10-10T08:38:18.190Z,101099.72
2022-10-10T08:40:47.690Z,101099.88
2022-10-10T08:43:21.782Z,101097.25
2022-10-10T08:45:51.028Z,101096.72
2022-10-10T08:48:27.285Z,101095.13
2022-10-10T08:51:00.629Z,101087.59
2022-10-10T08:53:39.173Z,101087.38
2022-10-10T08:56:07.845Z,101074.72
2022-10-10T08:58:43.017Z,101076.34
2022-10-10T09:01:28.063Z,101066.84
2022-10-10T09:03:59.121Z,101056.13
2022-10-10T09:06:53.615Z,101057.03
2022-10-10T09:09:36.689Z,101065.94
2022-10-10T09:12:21.623Z,101052.25
2022-10-10T09:15:28.238Z,101058.50
2022-10-10T09:17:54.563Z,101038.16
2022-10-10T09:20:27.131Z,101036.47
2022-10-10T09:23:06.045Z,101043.75
2022-10-10T09:25:48.740Z,101041.13
2022-10-10T09:28:32.939Z,101048.00
2022-10-10T09:31:01.857Z,101047.53
2022-10-10T09:33:36.909Z,101057.81
2022-10-10T09:36:08.425Z,101051.88
2022-10-10T09:38:43.312Z,101045.25
2022-10-10T09:41:21.920Z,101050.06
2022-10-10T09:43:48.451Z,101052.06
2022-10-10T09:46:14.920Z,101041.69
2022-10-10T09:48:43.063Z,101038.84
2022-10-10T09:51:15.508Z,101037.00
2022-10-10T09:53:43.467Z,101042.13
2022-10-10T09:56:19.457Z,101044.03
2022-10-10T09:58:48.778Z,101041.53
2022-10-10T10:01:27.346Z,101047.59
2022-10-10T10:04:27.778Z,101046.66
2022-10-10T10:07:20.334Z,101037.81
2022-10-10T10:09:52.167Z,101042.63
2022-10-10T10:12:24.037Z,101043.59
2022-10-10T10:14:51.050Z,101039.91
2022-10-10T10:17:22.328Z,101048.00
2022-10-10T10:19:48.733Z,101039.16
2022-10-10T10:22:39.497Z,101048.47
2022-10-10T10:25:31.412Z,101040.78
2022-10-10T10:28:40.487Z,101034.59
2022-10-10T10:31:16.990Z,101039.03
2022-10-10T10:34:10.430Z,101030.19
2022-10-10T10:36:47.279Z,101032.59
2022-10-10T10:39:33.543Z,101040.75
2022-10-10T10:42:20.742Z,101038.25
2022-10-10T10:45:19.003Z,101033.13
2022-10-10T10:47:55.652Z,101031.53
2022-10-10T10:50:34.653Z,101029.59
2022-10-10T10:53:22.720Z,101029.13
2022-10-10T10:55:51.346Z,101040.50
2022-10-10T11:01:55.975Z,101025.50
2022-10-10T11:05:19.394Z,101010.03
2022-10-10T11:07:53.449Z,101017.56
2022-10-10T11:10:33.023Z,101012.78
2022-10-10T11:13:28.855Z,101008.19
2022-10-10T11:16:36.676Z,101011.59
2022-10-10T11:19:14.350Z,101008.38
2022-10-10T11:21:56.089Z,101002.69
2022-10-10T11:24:28.393Z,100995.91
2022-10-10T11:26:59.807Z,100996.97
2022-10-10T11:29:38.859Z,101005.13
2022-10-10T11:32:14.996Z,101001.75
2022-10-10T11:35:07.207Z,101006.00
2022-10-10T11:37:37.584Z,101003.44
2022-10-10T11:40:06.289Z,101002.38
2022-10-10T11:42:37.458Z,100995.56
2022-10-10T11:45:09.774Z,100993.25
2022-10-10T11:47:47.923Z,100988.44
2022-10-10T11:50:19.916Z,100989.78
2022-10-10T11:52:54.431Z,100989.44
2022-10-10T11:55:41.810Z,100988.63
2022-10-10T11:58:08.079Z,100982.41
2022-10-10T12:00:37.861Z,100984.44
2022-10-10T12:03:04.255Z,100986.16
2022-10-10T12:05:35.253Z,100984.38
2022-10-10T12:08:18.068Z,100983.38
2022-10-10T12:10:52.399Z,100983.38
2022-10-10T12:13:21.441Z,100972.25
2022-10-10T12:15:51.850Z,100977.38
2022-10-10T12:18:31.811Z,100975.97
2022-10-10T12:21:10.401Z,100977.38
2022-10-10T12:23:37.913Z,100971.59
2022-10-10T12:26:04.781Z,100970.13
2022-10-10T12:28:37.412Z,100966.31
2022-10-10T12:31:03.957Z,100967.25
2022-10-10T12:33:33.446Z,100972.00
2022-10-10T12:36:20.984Z,100969.41
2022-10-10T12:39:10.329Z,100973.75
2022-10-10T12:41:56.050Z,100965.97
2022-10-10T12:44:42.899Z,100966.06
2022-10-10T12:47:15.418Z,100964.09
2022-10-10T12:50:18.749Z,100960.56
2022-10-10T12:52:49.582Z,100959.75
2022-10-10T12:55:29.598Z,100964.47
2022-10-10T12:58:07.180Z,100952.22
2022-10-10T13:00:39.447Z,100961.00
2022-10-10T13:03:16.306Z,100946.72
2022-10-10T13:05:43.556Z,100943.66
2022-10-10T13:08:19.427Z,100944.75
2022-10-10T13:11:21.414Z,100937.50
2022-10-10T13:13:52.671Z,100928.44
2022-10-10T13:16:23.147Z,100934.63
2022-10-10T13:18:51.226Z,100929.25
2022-10-10T13:21:32.657Z,100922.53
2022-10-10T13:24:03.760Z,100919.16
2022-10-10T13:26:43.919Z,100919.47
2022-10-10T13:29:25.584Z,100918.16
2022-10-10T13:31:55.077Z,100913.84
2022-10-10T13:34:29.472Z,100913.47
2022-10-10T13:36:58.356Z,100901.91
2022-10-10T13:39:25.750Z,100915.84
2022-10-10T13:41:53.686Z,100912.94
2022-10-10T13:44:25.495Z,100907.84
2022-10-10T13:46:51.901Z,100914.47
2022-10-10T13:49:29.518Z,100912.53
2022-10-10T13:52:21.542Z,100915.28
2022-10-10T13:54:48.939Z,100921.38
2022-10-10T13:57:24.109Z,100922.53
2022-10-10T14:00:00.652Z,100908.34
2022-10-10T14:02:31.576Z,100911.31
2022-10-10T14:04:59.065Z,100910.16
2022-10-10T14:07:30.624Z,100916.97
2022-10-10T14:10:00.189Z,100920.63
2022-10-10T14:12:37.338Z,100918.81
2022-10-10T14:15:04.932Z,100918.94
2022-10-10T14:17:31.530Z,100928.06
2022-10-10T14:19:57.903Z,100916.75
2022-10-10T14:22:24.310Z,100916.06
2022-10-10T14:24:50.679Z,100917.31
2022-10-10T14:27:19.879Z,100923.13
2022-10-10T14:29:46.851Z,100918.78
2022-10-10T14:32:14.485Z,100922.75
2022-10-10T14:34:41.159Z,100913.75
2022-10-10T14:37:16.857Z,100913.38
2022-10-10T14:39:43.201Z,100905.94
2022-10-10T14:42:12.618Z,100903.19
2022-10-10T14:44:38.958Z,100899.97
2022-10-10T14:47:05.439Z,100898.41
2022-10-10T14:49:31.770Z,100896.88
2022-10-10T14:51:58.138Z,100890.50
2022-10-10T14:54:24.499Z,100891.13
2022-10-10T14:57:07.744Z,100891.63
2022-10-10T14:59:48.255Z,100895.25
2022-10-10T15:02:21.714Z,100894.38
2022-10-10T15:04:48.571Z,100894.38
2022-10-10T15:07:15.880Z,100893.09
2022-10-10T15:09:57.685Z,100895.72
2022-10-10T15:12:29.313Z,100895.94
2022-10-10T15:14:55.687Z,100895.38
2022-10-10T15:17:22.572Z,100894.13
2022-10-10T15:19:48.911Z,100893.66
2022-10-10T15:22:15.252Z,100883.63
2022-10-10T15:24:41.595Z,100882.81
2022-10-10T15:27:08.004Z,100885.78
2022-10-10T15:29:34.387Z,100886.00
2022-10-10T15:32:01.667Z,100878.34
2022-10-10T15:34:28.062Z,100877.88
2022-10-10T15:36:54.385Z,100884.88
2022-10-10T15:39:20.780Z,100877.88
2022-10-10T15:41:47.298Z,100883.66
2022-10-10T15:44:18.783Z,100877.50
2022-10-10T15:46:45.918Z,100871.91
2022-10-10T15:49:13.478Z,100874.72
2022-10-10T15:51:45.167Z,100868.00
2022-10-10T15:54:12.255Z,100867.28
2022-10-10T15:56:38.922Z,100878.53
2022-10-10T15:59:05.582Z,100880.50
2022-10-10T16:01:32.422Z,100874.44
2022-10-10T16:03:58.896Z,100879.84
2022-10-10T16:06:25.969Z,100876.97
2022-10-10T16:09:04.232Z,100879.81
2022-10-10T16:11:38.969Z,100874.22
2022-10-10T16:14:05.330Z,100887.63
2022-10-10T16:16:31.904Z,100881.75
2022-10-10T16:18:59.668Z,100883.69
2022-10-10T16:21:26.369Z,100878.91
2022-10-10T16:23:57.902Z,100883.22
2022-10-10T16:26:26.672Z,100888.06
2022-10-10T16:28:54.483Z,100889.84
2022-10-10T16:31:21.235Z,100886.59
2022-10-10T16:33:48.667Z,100882.97
2022-10-10T16:36:20.916Z,100894.69
2022-10-10T16:38:48.256Z,100884.72
2022-10-10T16:41:35.611Z,100895.63
2022-10-10T16:44:03.094Z,100891.41
2022-10-10T16:46:29.565Z,100891.91
2022-10-10T16:48:58.521Z,100896.09
2022-10-10T16:51:25.454Z,100897.78
2022-10-10T16:53:52.142Z,100888.72
2022-10-10T16:56:20.546Z,100898.13
2022-10-10T16:58:47.328Z,100903.00
2022-10-10T17:01:16.203Z,100908.41
2022-10-10T17:03:42.980Z,100900.53
2022-10-10T17:06:16.151Z,100907.53
2022-10-10T17:08:43.174Z,100903.19
2022-10-10T17:11:10.049Z,100907.78
2022-10-10T17:13:37.954Z,100909.75
2022-10-10T17:16:40.452Z,100901.09
2022-10-10T17:18:53.126Z,100905.03
2022-10-10T17:21:24.623Z,100904.28
2022-10-10T17:23:51.639Z,100910.78
2022-10-10T17:26:22.483Z,100918.91
2022-10-10T17:28:50.347Z,100911.66
2022-10-10T17:31:17.689Z,100920.03
2022-10-10T17:33:53.291Z,100928.44
2022-10-10T17:36:23.333Z,100924.94
2022-10-10T17:38:49.747Z,100915.31
2022-10-10T17:41:16.961Z,100917.28
2022-10-10T17:43:44.096Z,100920.63
2022-10-10T17:46:33.177Z,100916.94
2022-10-10T17:48:59.797Z,100915.13
2022-10-10T17:51:26.163Z,100915.75
2022-10-10T17:53:52.940Z,100911.50
2022-10-10T17:56:21.554Z,100916.06
2022-10-10T17:58:48.873Z,100911.16
2022-10-10T18:01:16.518Z,100913.91
2022-10-10T18:03:43.188Z,100920.84
2022-10-10T18:06:15.095Z,100913.84
2022-10-10T18:08:41.567Z,100916.78
2022-10-10T18:11:23.257Z,100916.19
2022-10-10T18:13:50.505Z,100914.31
2022-10-10T18:16:21.378Z,100912.72
2022-10-10T18:18:51.390Z,100911.50
2022-10-10T18:21:20.615Z,100917.69
2022-10-10T18:23:47.982Z,100918.34
2022-10-10T18:26:20.592Z,100924.28
2022-10-10T18:28:47.870Z,100923.75
2022-10-10T18:31:21.082Z,100924.53
2022-10-10T18:33:48.452Z,100928.03
2022-10-10T18:36:20.350Z,100925.38
2022-10-10T18:38:46.946Z,100927.22
2022-10-10T18:41:18.672Z,100928.31
2022-10-10T18:43:45.506Z,100919.38
2022-10-10T18:46:14.489Z,100921.66
2022-10-10T18:48:41.902Z,100933.28
2022-10-10T18:51:16.791Z,100922.94
2022-10-10T18:53:45.507Z,100926.91
2022-10-10T18:56:14.077Z,100935.06
2022-10-10T18:58:41.287Z,100930.53
2022-10-10T19:01:12.704Z,100926.84
2022-10-10T19:03:40.519Z,100928.16
2022-10-10T19:06:09.748Z,100928.78
2022-10-10T19:08:37.100Z,100930.84
2022-10-10T19:11:05.342Z,100919.75
2022-10-10T19:13:33.043Z,100921.41
2022-10-10T19:16:04.509Z,100925.88
2022-10-10T19:18:30.873Z,100925.16
2022-10-10T19:21:05.437Z,100929.66
2022-10-10T19:23:33.682Z,100930.09
2022-10-10T19:26:08.506Z,100929.66
2022-10-10T19:28:36.234Z,100941.09
2022-10-10T19:31:05.779Z,100940.03
2022-10-10T19:33:32.751Z,100943.66
2022-10-10T19:36:01.892Z,100941.53
2022-10-10T19:38:30.477Z,100939.31
2022-10-10T19:40:56.881Z,100946.06
2022-10-10T19:43:23.324Z,100959.88
2022-10-10T19:45:53.516Z,100963.50
2022-10-10T19:48:21.395Z,100972.47
2022-10-10T19:50:48.504Z,100986.75
2022-10-10T19:53:18.102Z,100994.75
2022-10-10T19:55:55.932Z,100996.78
2022-10-10T19:58:22.268Z,101012.03
2022-10-10T20:00:48.752Z,101013.06
2022-10-10T20:03:15.148Z,101027.09
2022-10-10T20:05:41.464Z,101037.81
2022-10-10T20:08:07.772Z,101038.16
2022-10-10T20:10:34.243Z,101039.22
2022-10-10T20:13:00.598Z,101043.19
2022-10-10T20:15:26.953Z,101047.16
2022-10-10T20:17:53.318Z,101045.00
2022-10-10T20:20:19.744Z,101049.06
2022-10-10T20:22:46.155Z,101049.38
2022-10-10T20:25:12.588Z,101046.03
2022-10-10T20:27:39.051Z,101051.66
2022-10-10T20:30:06.059Z,101051.97
2022-10-10T20:32:32.556Z,101057.41
2022-10-10T20:34:58.937Z,101062.03
2022-10-10T20:37:25.290Z,101066.28
2022-10-10T20:39:51.625Z,101066.03
2022-10-10T20:42:17.991Z,101069.56
2022-10-10T20:44:44.350Z,101078.03
2022-10-10T20:47:10.704Z,101081.94
2022-10-10T20:49:37.155Z,101080.81
2022-10-10T20:52:03.520Z,101094.19
2022-10-10T20:54:29.909Z,101089.41
2022-10-10T20:56:56.217Z,101093.88
2022-10-10T20:59:24.345Z,101108.13
2022-10-10T21:01:50.955Z,101099.72
2022-10-10T21:04:17.484Z,101108.03
2022-10-10T21:06:43.919Z,101097.84
2022-10-10T21:09:12.760Z,101096.97
2022-10-10T21:11:39.654Z,101108.41
2022-10-10T21:14:07.085Z,101103.44
2022-10-10T21:16:36.920Z,101109.47
2022-10-10T21:19:04.778Z,101100.63
2022-10-10T21:21:33.485Z,101110.53
2022-10-10T21:24:00.889Z,101106.28
2022-10-10T21:26:28.602Z,101107.78
2022-10-10T21:28:55.870Z,101121.72
2022-10-10T21:31:25.837Z,101115.59
2022-10-10T21:33:53.352Z,101112.56
2022-10-10T21:36:21.199Z,101114.78
2022-10-10T21:38:47.729Z,101123.69
2022-10-10T21:41:18.986Z,101136.63
2022-10-10T21:43:47.475Z,101129.97
2022-10-10T21:46:17.025Z,101135.66
2022-10-10T21:48:43.994Z,101141.03
2022-10-10T21:51:10.533Z,101143.84
2022-10-10T21:53:37.079Z,101140.50
2022-10-10T21:56:06.550Z,101150.75
2022-10-10T21:58:36.063Z,101153.16
2022-10-10T22:01:20.239Z,101165.47
2022-10-10T22:03:48.869Z,101164.13
2022-10-10T22:06:18.239Z,101166.88
2022-10-10T22:08:45.052Z,101177.50
2022-10-10T22:11:15.499Z,101182.34
2022-10-10T22:13:41.940Z,101192.19
2022-10-10T22:16:09.387Z,101189.44
2022-10-10T22:18:36.688Z,101198.69
2022-10-10T22:21:12.405Z,101203.97
2022-10-10T22:23:39.203Z,101213.31
2022-10-10T22:26:11.299Z,101218.59
2022-10-10T22:28:37.720Z,101221.69
2022-10-10T22:31:06.094Z,101227.53
2022-10-10T22:33:32.402Z,101242.28
2022-10-10T22:35:58.805Z,101239.53
2022-10-10T22:38:25.262Z,101245.50
2022-10-10T22:40:51.863Z,101249.34
2022-10-10T22:43:18.304Z,101250.09
2022-10-10T22:45:44.753Z,101256.84
2022-10-10T22:48:11.168Z,101262.00
2022-10-10T22:50:38.602Z,101270.13
2022-10-10T22:53:06.052Z,101262.63
2022-10-10T22:55:33.545Z,101270.34
2022-10-10T22:57:59.950Z,101286.81
2022-10-10T23:00:26.398Z,101288.66
2022-10-10T23:02:56.750Z,101295.19
2022-10-10T23:05:23.182Z,101300.47
2022-10-10T23:07:49.513Z,101303.91
2022-10-10T23:10:15.855Z,101308.16
2022-10-10T23:12:42.782Z,101314.69
2022-10-10T23:15:09.425Z,101320.94
2022-10-10T23:17:36.561Z,101327.81
2022-10-10T23:20:03.764Z,101335.84
2022-10-10T23:22:30.102Z,101325.53
2022-10-10T23:24:56.457Z,101336.94
2022-10-10T23:27:22.830Z,101341.66
2022-10-10T23:29:49.146Z,101345.38
2022-10-10T23:32:15.508Z,101351.25
2022-10-10T23:34:41.842Z,101353.41
2022-10-10T23:37:08.198Z,101358.16
2022-10-10T23:39:34.580Z,101361.00
2022-10-10T23:42:00.927Z,101361.44
2022-10-10T23:44:27.257Z,101365.94
2022-10-10T23:46:53.579Z,101362.94
2022-10-10T23:49:19.918Z,101365.47
2022-10-10T23:51:46.226Z,101369.78
2022-10-10T23:54:12.536Z,101375.72
2022-10-10T23:56:38.899Z,101377.34
2022-10-10T23:59:05.210Z,101380.94
